createdAt,value
2016-03-30T00:00:55.295Z,9.16
2016-03-30T00:01:55.282Z,9.03
2016-03-30T00:02:55.300Z,9.05
2016-03-30T00:03:55.287Z,9.03
2016-03-30T00:04:55.306Z,8.97
2016-03-30T00:05:55.277Z,9.12
2016-03-30T00:06:55.295Z,9.02
2016-03-30T00:07:55.283Z,9.15
2016-03-30T00:08:55.286Z,9.16
2016-03-30T00:09:55.272Z,9.05
2016-03-30T00:10:55.291Z,9.22
2016-03-30T00:11:55.278Z,9.22
2016-03-30T00:12:55.281Z,9.18
2016-03-30T00:13:55.299Z,9.31
2016-03-30T00:14:55.285Z,9.31
2016-03-30T00:15:55.289Z,9.33
2016-03-30T00:16:55.307Z,9.3
2016-03-30T00:17:55.294Z,9.37
2016-03-30T00:18:55.297Z,9.34
2016-03-30T00:19:55.300Z,9.44
2016-03-30T00:20:55.302Z,9.39
2016-03-30T00:21:55.288Z,9.37
2016-03-30T00:22:55.277Z,9.44
2016-03-30T00:23:55.310Z,9.45
2016-03-30T00:24:55.297Z,9.47
2016-03-30T00:25:55.284Z,9.49
2016-03-30T00:26:55.287Z,9.47
2016-03-30T00:27:55.305Z,9.47
2016-03-30T00:28:55.276Z,9.47
2016-03-30T00:29:55.279Z,9.47
2016-03-30T00:30:55.298Z,9.4
2016-03-30T00:31:55.284Z,9.51
2016-03-30T00:32:55.287Z,9.45
2016-03-30T00:33:55.289Z,9.44
2016-03-30T00:34:55.292Z,9.49
2016-03-30T00:35:55.311Z,9.42
2016-03-30T00:36:55.297Z,9.44
2016-03-30T00:37:55.301Z,9.44
2016-03-30T00:38:55.287Z,9.49
2016-03-30T00:39:55.306Z,9.42
2016-03-30T00:40:55.293Z,9.44
2016-03-30T00:41:55.311Z,9.54
2016-03-30T00:42:55.298Z,9.45
2016-03-30T00:43:55.285Z,9.54
2016-03-30T00:44:55.476Z,9.51
2016-03-30T00:45:55.291Z,9.45
2016-03-30T00:46:55.294Z,9.54
2016-03-30T00:47:55.296Z,9.52
2016-03-30T00:48:55.299Z,9.45
2016-03-30T00:49:55.302Z,9.55
2016-03-30T00:50:55.305Z,9.51
2016-03-30T00:51:55.292Z,9.51
2016-03-30T00:52:55.294Z,9.51
2016-03-30T00:53:55.296Z,9.59
2016-03-30T00:54:55.299Z,9.52
2016-03-30T00:55:55.318Z,9.59
2016-03-30T00:56:55.290Z,9.51
2016-03-30T00:57:55.292Z,9.63
2016-03-30T00:58:55.295Z,9.58
2016-03-30T00:59:55.344Z,9.56
2016-03-30T01:00:55.300Z,9.54
2016-03-30T01:01:55.304Z,9.55
2016-03-30T01:02:55.306Z,9.58
2016-03-30T01:03:55.324Z,9.55
2016-03-30T01:04:55.311Z,9.58
2016-03-30T01:05:55.314Z,9.56
2016-03-30T01:06:55.298Z,9.69
2016-03-30T01:07:55.290Z,9.51
2016-03-30T01:08:55.282Z,9.54
2016-03-30T01:09:55.274Z,9.58
2016-03-30T01:10:55.266Z,9.56
2016-03-30T01:11:55.291Z,9.52
2016-03-30T01:12:55.242Z,9.55
2016-03-30T01:13:55.240Z,9.55
2016-03-30T01:14:55.224Z,9.58
2016-03-30T01:15:55.237Z,9.62
2016-03-30T01:16:55.236Z,9.69
2016-03-30T01:17:55.237Z,9.69
2016-03-30T01:18:55.223Z,9.62
2016-03-30T01:19:55.225Z,9.58
2016-03-30T01:20:55.226Z,9.59
2016-03-30T01:21:55.211Z,9.56
2016-03-30T01:22:55.214Z,9.69
2016-03-30T01:23:55.216Z,9.62
2016-03-30T01:24:55.249Z,9.69
2016-03-30T01:25:55.220Z,9.69
2016-03-30T01:26:55.223Z,9.63
2016-03-30T01:27:55.226Z,9.64
2016-03-30T01:28:55.244Z,9.63
2016-03-30T01:29:55.372Z,9.64
2016-03-30T01:30:55.234Z,9.67
2016-03-30T01:31:55.064Z,9.63
2016-03-30T01:32:55.223Z,9.66
2016-03-30T01:33:55.226Z,9.52
2016-03-30T01:34:55.245Z,9.55
2016-03-30T01:35:55.231Z,9.56
2016-03-30T01:36:55.233Z,9.59
2016-03-30T01:37:55.236Z,9.62
2016-03-30T01:38:55.239Z,9.58
2016-03-30T01:39:55.242Z,9.58
2016-03-30T01:40:55.245Z,9.64
2016-03-30T01:41:55.232Z,9.54
2016-03-30T01:42:55.235Z,9.54
2016-03-30T01:43:55.081Z,9.62
2016-03-30T01:44:55.381Z,9.49
2016-03-30T01:45:55.227Z,9.45
2016-03-30T01:46:55.246Z,9.45
2016-03-30T01:47:55.248Z,9.4
2016-03-30T01:48:55.236Z,9.45
2016-03-30T01:49:55.223Z,9.44
2016-03-30T01:50:55.226Z,9.4
2016-03-30T01:51:55.229Z,9.49
2016-03-30T01:52:55.231Z,9.42
2016-03-30T01:53:55.248Z,9.36
2016-03-30T01:54:55.236Z,9.29
2016-03-30T01:55:55.239Z,9.36
2016-03-30T01:56:55.242Z,9.39
2016-03-30T01:57:55.245Z,9.34
2016-03-30T01:58:55.247Z,9.4
2016-03-30T01:59:55.327Z,9.36
2016-03-30T02:00:55.252Z,9.42
2016-03-30T02:01:55.239Z,9.39
2016-03-30T02:02:55.242Z,9.31
2016-03-30T02:03:55.228Z,9.34
2016-03-30T02:04:55.247Z,9.3
2016-03-30T02:05:55.234Z,9.33
2016-03-30T02:06:55.236Z,9.31
2016-03-30T02:07:55.317Z,9.26
2016-03-30T02:08:55.258Z,9.27
2016-03-30T02:09:55.230Z,9.31
2016-03-30T02:10:55.247Z,9.29
2016-03-30T02:11:55.250Z,9.26
2016-03-30T02:12:55.252Z,9.24
2016-03-30T02:13:55.241Z,9.26
2016-03-30T02:14:55.274Z,9.18
2016-03-30T02:15:55.245Z,9.16
2016-03-30T02:16:55.249Z,9.27
2016-03-30T02:17:55.235Z,9.24
2016-03-30T02:18:55.254Z,9.12
2016-03-30T02:19:55.257Z,9.12
2016-03-30T02:20:55.243Z,9.12
2016-03-30T02:21:55.230Z,9.16
2016-03-30T02:22:55.249Z,9.16
2016-03-30T02:23:55.251Z,9.16
2016-03-30T02:24:55.254Z,9.21
2016-03-30T02:25:55.257Z,9.16
2016-03-30T02:26:55.244Z,9.13
2016-03-30T02:27:55.246Z,9.16
2016-03-30T02:28:55.249Z,9.21
2016-03-30T02:29:55.159Z,9.24
2016-03-30T02:30:55.255Z,9.3
2016-03-30T02:31:55.257Z,9.29
2016-03-30T02:32:55.260Z,9.3
2016-03-30T02:33:55.247Z,9.33
2016-03-30T02:34:55.250Z,9.19
2016-03-30T02:35:55.253Z,9.24
2016-03-30T02:36:55.256Z,9.18
2016-03-30T02:37:55.258Z,9.19
2016-03-30T02:38:55.261Z,9.13
2016-03-30T02:39:55.247Z,9.16
2016-03-30T02:40:55.250Z,8.99
2016-03-30T02:41:55.253Z,9
2016-03-30T02:42:55.256Z,9.12
2016-03-30T02:43:55.243Z,8.96
2016-03-30T02:44:55.121Z,8.99
2016-03-30T02:45:55.264Z,8.97
2016-03-30T02:46:55.251Z,8.89
2016-03-30T02:47:55.254Z,8.89
2016-03-30T02:48:55.256Z,8.87
2016-03-30T02:49:55.260Z,8.9
2016-03-30T02:50:55.246Z,8.95
2016-03-30T02:51:55.249Z,8.86
2016-03-30T02:52:55.252Z,8.99
2016-03-30T02:53:55.254Z,8.92
2016-03-30T02:54:55.257Z,8.95
2016-03-30T02:55:55.260Z,8.93
2016-03-30T02:56:55.262Z,8.89
2016-03-30T02:57:55.250Z,8.82
2016-03-30T02:58:55.252Z,8.89
2016-03-30T02:59:55.254Z,8.84
2016-03-30T03:00:55.257Z,8.82
2016-03-30T03:01:55.260Z,8.75
2016-03-30T03:02:55.262Z,8.84
2016-03-30T03:03:55.265Z,8.87
2016-03-30T03:04:55.253Z,8.93
2016-03-30T03:05:55.271Z,8.95
2016-03-30T03:06:55.258Z,8.92
2016-03-30T03:07:55.261Z,8.93
2016-03-30T03:08:55.264Z,8.82
2016-03-30T03:09:55.266Z,9.03
2016-03-30T03:10:55.253Z,8.87
2016-03-30T03:11:55.256Z,8.96
2016-03-30T03:12:55.258Z,9.02
2016-03-30T03:13:55.261Z,8.9
2016-03-30T03:14:55.311Z,8.97
2016-03-30T03:15:55.267Z,8.95
2016-03-30T03:16:55.270Z,8.92
2016-03-30T03:17:55.257Z,8.87
2016-03-30T03:18:55.258Z,8.92
2016-03-30T03:19:55.262Z,8.95
2016-03-30T03:20:55.265Z,8.84
2016-03-30T03:21:55.252Z,8.79
2016-03-30T03:22:55.270Z,8.74
2016-03-30T03:23:55.273Z,8.72
2016-03-30T03:24:55.275Z,8.75
2016-03-30T03:25:55.278Z,8.74
2016-03-30T03:26:55.266Z,8.66
2016-03-30T03:27:55.268Z,8.71
2016-03-30T03:28:55.271Z,8.69
2016-03-30T03:29:55.274Z,8.69
2016-03-30T03:30:55.260Z,8.64
2016-03-30T03:31:55.262Z,8.66
2016-03-30T03:32:55.265Z,8.63
2016-03-30T03:33:55.268Z,8.66
2016-03-30T03:34:55.287Z,8.63
2016-03-30T03:35:55.258Z,8.66
2016-03-30T03:36:55.262Z,8.66
2016-03-30T03:37:55.264Z,8.66
2016-03-30T03:38:55.267Z,8.66
2016-03-30T03:39:55.270Z,8.66
2016-03-30T03:40:55.287Z,8.64
2016-03-30T03:41:55.275Z,8.71
2016-03-30T03:42:55.261Z,8.74
2016-03-30T03:43:55.280Z,8.71
2016-03-30T03:44:55.267Z,8.66
2016-03-30T03:45:55.285Z,8.64
2016-03-30T03:46:55.289Z,8.6
2016-03-30T03:47:55.275Z,8.57
2016-03-30T03:48:55.278Z,8.54
2016-03-30T03:49:55.281Z,8.56
2016-03-30T03:50:55.267Z,8.45
2016-03-30T03:51:55.270Z,8.42
2016-03-30T03:52:55.272Z,8.41
2016-03-30T03:53:55.275Z,8.34
2016-03-30T03:54:55.294Z,8.36
2016-03-30T03:55:55.280Z,8.31
2016-03-30T03:56:55.283Z,8.35
2016-03-30T03:57:55.285Z,8.27
2016-03-30T03:58:55.288Z,8.26
2016-03-30T03:59:55.276Z,8.23
2016-03-30T04:00:55.279Z,8.24
2016-03-30T04:01:55.281Z,8.16
2016-03-30T04:02:55.268Z,8.13
2016-03-30T04:03:55.271Z,8.17
2016-03-30T04:04:55.273Z,8.11
2016-03-30T04:05:55.292Z,8.08
2016-03-30T04:06:55.279Z,8.08
2016-03-30T04:07:55.282Z,8.16
2016-03-30T04:08:55.284Z,8.08
2016-03-30T04:09:55.287Z,8.17
2016-03-30T04:10:55.274Z,8.14
2016-03-30T04:11:55.276Z,8.14
2016-03-30T04:12:55.279Z,8.18
2016-03-30T04:13:55.281Z,8.2
2016-03-30T04:14:55.284Z,8.24
2016-03-30T04:15:55.287Z,8.32
2016-03-30T04:16:55.289Z,8.31
2016-03-30T04:17:55.293Z,8.27
2016-03-30T04:18:55.280Z,8.34
2016-03-30T04:19:55.298Z,8.31
2016-03-30T04:20:55.270Z,8.35
2016-03-30T04:21:55.273Z,8.35
2016-03-30T04:22:55.275Z,8.32
2016-03-30T04:23:55.294Z,8.32
2016-03-30T04:24:55.296Z,8.34
2016-03-30T04:25:55.283Z,8.24
2016-03-30T04:26:55.286Z,8.26
2016-03-30T04:27:55.274Z,8.31
2016-03-30T04:28:55.292Z,8.34
2016-03-30T04:29:55.279Z,8.31
2016-03-30T04:30:55.282Z,8.35
2016-03-30T04:31:55.285Z,8.38
2016-03-30T04:32:55.302Z,8.44
2016-03-30T04:33:55.290Z,8.45
2016-03-30T04:34:55.276Z,8.45
2016-03-30T04:35:55.295Z,8.46
2016-03-30T04:36:55.298Z,8.54
2016-03-30T04:37:55.300Z,8.6
2016-03-30T04:38:55.271Z,8.54
2016-03-30T04:39:55.289Z,8.56
2016-03-30T04:40:55.292Z,8.66
2016-03-30T04:41:55.295Z,8.63
2016-03-30T04:42:55.281Z,8.69
2016-03-30T04:43:55.285Z,8.72
2016-03-30T04:44:55.147Z,8.72
2016-03-30T04:45:55.290Z,8.75
2016-03-30T04:46:55.309Z,8.78
2016-03-30T04:47:55.296Z,8.78
2016-03-30T04:48:55.283Z,8.71
2016-03-30T04:49:55.286Z,8.86
2016-03-30T04:50:55.272Z,8.81
2016-03-30T04:51:55.291Z,8.86
2016-03-30T04:52:55.278Z,8.89
2016-03-30T04:53:55.280Z,8.86
2016-03-30T04:54:55.299Z,8.9
2016-03-30T04:55:55.301Z,8.89
2016-03-30T04:56:55.288Z,8.92
2016-03-30T04:57:55.307Z,8.93
2016-03-30T04:58:55.309Z,8.9
2016-03-30T04:59:55.297Z,8.9
2016-03-30T05:00:55.283Z,8.89
2016-03-30T05:01:55.286Z,8.86
2016-03-30T05:02:55.289Z,8.89
2016-03-30T05:03:55.291Z,8.9
2016-03-30T05:04:55.294Z,8.86
2016-03-30T05:05:55.296Z,8.89
2016-03-30T05:06:55.284Z,8.89
2016-03-30T05:07:55.287Z,8.84
2016-03-30T05:08:55.290Z,8.9
2016-03-30T05:09:55.293Z,8.87
2016-03-30T05:10:55.295Z,8.87
2016-03-30T05:11:55.298Z,8.86
2016-03-30T05:12:55.301Z,8.93
2016-03-30T05:13:55.304Z,8.89
2016-03-30T05:14:55.290Z,8.95
2016-03-30T05:15:55.293Z,8.93
2016-03-30T05:16:55.295Z,8.92
2016-03-30T05:17:55.298Z,8.96
2016-03-30T05:18:55.300Z,8.97
2016-03-30T05:19:55.288Z,8.95
2016-03-30T05:20:55.291Z,9.05
2016-03-30T05:21:55.293Z,9.02
2016-03-30T05:22:55.296Z,8.97
2016-03-30T05:23:55.299Z,8.97
2016-03-30T05:24:55.302Z,9.03
2016-03-30T05:25:55.289Z,9.03
2016-03-30T05:26:55.291Z,9
2016-03-30T05:27:55.294Z,9.16
2016-03-30T05:28:55.297Z,9.12
2016-03-30T05:29:55.299Z,9.21
2016-03-30T05:30:55.286Z,9.19
2016-03-30T05:31:55.304Z,9.18
2016-03-30T05:32:55.291Z,9.27
2016-03-30T05:33:55.294Z,9.24
2016-03-30T05:34:55.296Z,9.24
2016-03-30T05:35:55.299Z,9.29
2016-03-30T05:36:55.301Z,9.29
2016-03-30T05:37:55.304Z,9.3
2016-03-30T05:38:55.292Z,9.27
2016-03-30T05:39:55.295Z,9.34
2016-03-30T05:40:55.313Z,9.39
2016-03-30T05:41:55.301Z,9.39
2016-03-30T05:42:55.303Z,9.34
2016-03-30T05:43:55.306Z,9.34
2016-03-30T05:44:55.309Z,9.4
2016-03-30T05:45:55.295Z,9.33
2016-03-30T05:46:55.298Z,9.37
2016-03-30T05:47:55.300Z,9.39
2016-03-30T05:48:55.319Z,9.45
2016-03-30T05:49:55.290Z,9.4
2016-03-30T05:50:55.339Z,9.33
2016-03-30T05:51:55.296Z,9.45
2016-03-30T05:52:55.298Z,9.48
2016-03-30T05:53:55.301Z,9.4
2016-03-30T05:54:55.304Z,9.54
2016-03-30T05:55:55.306Z,9.55
2016-03-30T05:56:55.309Z,9.56
2016-03-30T05:57:55.311Z,9.55
2016-03-30T05:58:55.314Z,9.62
2016-03-30T05:59:55.302Z,9.63
2016-03-30T06:00:55.305Z,9.72
2016-03-30T06:01:55.307Z,9.8
2016-03-30T06:02:55.310Z,9.76
2016-03-30T06:03:55.312Z,9.84
2016-03-30T06:04:55.299Z,9.85
2016-03-30T06:05:55.318Z,9.91
2016-03-30T06:06:55.305Z,10.03
2016-03-30T06:07:55.308Z,10
2016-03-30T06:08:55.310Z,10.02
2016-03-30T06:09:55.313Z,10.05
2016-03-30T06:10:55.316Z,10.21
2016-03-30T06:11:55.303Z,10.23
2016-03-30T06:12:55.306Z,10.28
2016-03-30T06:13:55.323Z,10.39
2016-03-30T06:14:55.311Z,10.42
2016-03-30T06:15:55.314Z,10.45
2016-03-30T06:16:55.300Z,10.58
2016-03-30T06:17:55.319Z,10.55
2016-03-30T06:18:55.305Z,10.55
2016-03-30T06:19:55.324Z,10.58
2016-03-30T06:20:55.327Z,10.65
2016-03-30T06:21:55.313Z,10.62
2016-03-30T06:22:55.316Z,10.69
2016-03-30T06:23:55.319Z,10.8
2016-03-30T06:24:55.322Z,10.9
2016-03-30T06:25:55.325Z,10.94
2016-03-30T06:26:55.328Z,11.01
2016-03-30T06:27:55.314Z,11.08
2016-03-30T06:28:55.317Z,11.26
2016-03-30T06:29:55.319Z,11.35
2016-03-30T06:30:55.322Z,11.51
2016-03-30T06:31:55.310Z,11.53
2016-03-30T06:32:55.327Z,11.76
2016-03-30T06:33:55.331Z,11.77
2016-03-30T06:34:55.318Z,11.86
2016-03-30T06:35:55.321Z,11.97
2016-03-30T06:36:55.324Z,11.96
2016-03-30T06:37:55.326Z,12.14
2016-03-30T06:38:55.329Z,12.15
2016-03-30T06:39:55.331Z,12.11
2016-03-30T06:40:55.334Z,12.28
2016-03-30T06:41:55.337Z,12.25
2016-03-30T06:42:55.323Z,12.3
2016-03-30T06:43:55.342Z,12.32
2016-03-30T06:44:55.328Z,12.33
2016-03-30T06:45:55.332Z,12.45
2016-03-30T06:46:55.318Z,12.5
2016-03-30T06:47:55.337Z,12.48
2016-03-30T06:48:55.324Z,12.55
2016-03-30T06:49:55.326Z,12.58
2016-03-30T06:50:55.329Z,12.66
2016-03-30T06:51:55.347Z,12.61
2016-03-30T06:52:55.334Z,12.61
2016-03-30T06:53:55.322Z,12.65
2016-03-30T06:54:55.324Z,12.54
2016-03-30T06:55:55.342Z,12.7
2016-03-30T06:56:55.330Z,12.72
2016-03-30T06:57:55.332Z,12.78
2016-03-30T06:58:55.176Z,12.94
2016-03-30T06:59:55.353Z,13.13
2016-03-30T07:00:55.341Z,13.27
2016-03-30T07:01:55.344Z,13.37
2016-03-30T07:02:55.346Z,13.52
2016-03-30T07:03:55.349Z,13.71
2016-03-30T07:04:55.352Z,13.83
2016-03-30T07:05:55.354Z,14.03
2016-03-30T07:06:55.372Z,14.23
2016-03-30T07:07:55.342Z,14.28
2016-03-30T07:08:55.344Z,14.34
2016-03-30T07:09:55.347Z,14.31
2016-03-30T07:10:55.350Z,14.36
2016-03-30T07:11:55.368Z,14.37
2016-03-30T07:12:55.340Z,14.41
2016-03-30T07:13:55.358Z,14.4
2016-03-30T07:14:55.361Z,14.33
2016-03-30T07:15:55.349Z,14.44
2016-03-30T07:16:55.351Z,14.48
2016-03-30T07:17:55.338Z,14.53
2016-03-30T07:18:55.341Z,14.7
2016-03-30T07:19:55.359Z,14.7
2016-03-30T07:20:55.362Z,14.78
2016-03-30T07:21:55.364Z,14.9
2016-03-30T07:22:55.367Z,14.85
2016-03-30T07:23:55.354Z,14.96
2016-03-30T07:24:55.356Z,15.05
2016-03-30T07:25:55.359Z,15.05
2016-03-30T07:26:55.362Z,15.08
2016-03-30T07:27:55.381Z,15.08
2016-03-30T07:28:55.368Z,15
2016-03-30T07:29:55.370Z,15.04
2016-03-30T07:30:55.373Z,14.97
2016-03-30T07:31:55.376Z,14.94
2016-03-30T07:32:55.378Z,14.87
2016-03-30T07:33:55.381Z,14.79
2016-03-30T07:34:55.367Z,14.9
2016-03-30T07:35:55.386Z,14.92
2016-03-30T07:36:55.373Z,15.08
2016-03-30T07:37:55.392Z,15.08
2016-03-30T07:38:55.379Z,15.25
2016-03-30T07:39:55.381Z,15.32
2016-03-30T07:40:55.384Z,15.48
2016-03-30T07:41:55.386Z,15.54
2016-03-30T07:42:55.389Z,15.55
2016-03-30T07:43:55.392Z,15.6
2016-03-30T07:44:55.395Z,15.55
2016-03-30T07:45:55.398Z,15.73
2016-03-30T07:46:55.400Z,15.67
2016-03-30T07:47:55.403Z,15.62
2016-03-30T07:48:55.390Z,15.7
2016-03-30T07:49:55.408Z,15.75
2016-03-30T07:50:55.739Z,15.75
2016-03-30T07:51:55.399Z,15.75
2016-03-30T07:52:55.401Z,15.78
2016-03-30T07:53:55.403Z,15.91
2016-03-30T07:54:55.421Z,16.05
2016-03-30T07:55:55.409Z,16.16
2016-03-30T07:56:55.412Z,16.31
2016-03-30T07:57:55.414Z,16.41
2016-03-30T07:58:55.417Z,16.55
2016-03-30T07:59:55.420Z,16.54
2016-03-30T08:00:55.423Z,16.64
2016-03-30T08:01:55.425Z,16.66
2016-03-30T08:02:55.428Z,16.73
2016-03-30T08:03:55.431Z,16.77
2016-03-30T08:04:55.999Z,16.74
2016-03-30T08:05:55.419Z,16.95
2016-03-30T08:06:55.264Z,16.99
2016-03-30T08:07:55.422Z,16.97
2016-03-30T08:08:55.856Z,17.02
2016-03-30T08:09:55.428Z,17.12
2016-03-30T08:10:55.415Z,17.16
2016-03-30T08:11:55.418Z,17.13
2016-03-30T08:12:55.421Z,17.24
2016-03-30T08:13:55.424Z,17.34
2016-03-30T08:14:55.426Z,17.38
2016-03-30T08:15:55.398Z,17.37
2016-03-30T08:16:55.431Z,17.44
2016-03-30T08:17:55.435Z,17.65
2016-03-30T08:18:55.437Z,17.78
2016-03-30T08:19:55.440Z,18
2016-03-30T08:20:55.286Z,17.93
2016-03-30T08:21:55.445Z,17.95
2016-03-30T08:22:55.448Z,18
2016-03-30T08:23:55.450Z,18.02
2016-03-30T08:24:55.454Z,17.94
2016-03-30T08:25:55.456Z,18.05
2016-03-30T08:26:55.459Z,17.98
2016-03-30T08:27:55.461Z,18.05
2016-03-30T08:28:55.464Z,18.08
2016-03-30T08:29:55.467Z,18.27
2016-03-30T08:30:55.486Z,18.19
2016-03-30T08:31:55.473Z,18.3
2016-03-30T08:32:55.476Z,18.34
2016-03-30T08:33:55.478Z,18.36
2016-03-30T08:34:55.497Z,18.42
2016-03-30T08:35:55.490Z,18.45
2016-03-30T08:36:55.492Z,18.41
2016-03-30T08:37:55.495Z,18.27
2016-03-30T08:38:55.498Z,18.34
2016-03-30T08:39:55.500Z,18.27
2016-03-30T08:40:55.503Z,18.12
2016-03-30T08:41:55.505Z,17.93
2016-03-30T08:42:55.508Z,17.88
2016-03-30T08:43:55.503Z,17.71
2016-03-30T08:44:55.506Z,17.56
2016-03-30T08:45:55.508Z,17.41
2016-03-30T08:46:55.511Z,17.28
2016-03-30T08:47:55.514Z,17.16
2016-03-30T08:48:55.517Z,17.05
2016-03-30T08:49:55.519Z,16.91
2016-03-30T08:50:55.522Z,16.83
2016-03-30T08:51:55.571Z,16.74
2016-03-30T08:52:55.528Z,16.68
2016-03-30T08:53:55.530Z,16.68
2016-03-30T08:54:55.533Z,16.61
2016-03-30T08:55:55.536Z,16.5
2016-03-30T08:56:55.539Z,16.32
2016-03-30T08:57:55.541Z,16.22
2016-03-30T08:58:55.543Z,16.13
2016-03-30T08:59:55.547Z,15.99
2016-03-30T09:00:55.549Z,16
2016-03-30T09:01:55.552Z,15.87
2016-03-30T09:02:55.554Z,15.84
2016-03-30T09:03:55.557Z,15.9
2016-03-30T09:04:55.560Z,15.96
2016-03-30T09:05:55.563Z,16.02
2016-03-30T09:06:55.565Z,16.12
2016-03-30T09:07:55.583Z,16.21
2016-03-30T09:08:55.554Z,16.24
2016-03-30T09:09:55.574Z,16.29
2016-03-30T09:10:55.576Z,16.25
2016-03-30T09:11:55.579Z,16.36
2016-03-30T09:12:55.566Z,16.32
2016-03-30T09:13:55.569Z,16.36
2016-03-30T09:14:55.571Z,16.4
2016-03-30T09:15:55.590Z,16.37
2016-03-30T09:16:55.593Z,16.4
2016-03-30T09:17:55.579Z,16.29
2016-03-30T09:18:55.598Z,16.32
2016-03-30T09:19:55.584Z,16.31
2016-03-30T09:20:55.604Z,16.18
2016-03-30T09:21:55.590Z,16.21
2016-03-30T09:22:55.593Z,16.16
2016-03-30T09:23:55.611Z,16.1
2016-03-30T09:24:55.628Z,16.1
2016-03-30T09:25:55.600Z,16.06
2016-03-30T09:26:55.604Z,16.06
2016-03-30T09:27:55.622Z,15.88
2016-03-30T09:28:55.608Z,15.87
2016-03-30T09:29:55.611Z,15.81
2016-03-30T09:30:55.614Z,15.8
2016-03-30T09:31:55.617Z,15.85
2016-03-30T09:32:55.619Z,15.83
2016-03-30T09:33:55.622Z,15.91
2016-03-30T09:34:55.625Z,15.92
2016-03-30T09:35:55.644Z,15.94
2016-03-30T09:36:55.630Z,15.96
2016-03-30T09:37:55.633Z,15.99
2016-03-30T09:38:55.635Z,15.91
2016-03-30T09:39:55.638Z,15.88
2016-03-30T09:40:55.641Z,15.83
2016-03-30T09:41:55.644Z,15.94
2016-03-30T09:42:55.630Z,15.87
2016-03-30T09:43:55.649Z,15.88
2016-03-30T09:44:55.636Z,15.96
2016-03-30T09:45:55.654Z,16
2016-03-30T09:46:55.641Z,16.02
2016-03-30T09:47:55.644Z,16.09
2016-03-30T09:48:55.646Z,16.16
2016-03-30T09:49:55.649Z,16.24
2016-03-30T09:50:55.637Z,16.22
2016-03-30T09:51:55.655Z,16.26
2016-03-30T09:52:55.657Z,16.29
2016-03-30T09:53:55.660Z,16.37
2016-03-30T09:54:55.679Z,16.28
2016-03-30T09:55:55.681Z,16.24
2016-03-30T09:56:55.684Z,16.22
2016-03-30T09:57:55.671Z,16.24
2016-03-30T09:58:55.673Z,16.16
2016-03-30T09:59:55.676Z,16.09
2016-03-30T10:00:55.772Z,16.06
2016-03-30T10:01:55.698Z,16.1
2016-03-30T10:02:55.684Z,16.05
2016-03-30T10:03:55.687Z,16.09
2016-03-30T10:04:55.689Z,16.12
2016-03-30T10:05:55.692Z,16.17
2016-03-30T10:06:55.680Z,16.25
2016-03-30T10:07:55.698Z,16.25
2016-03-30T10:08:55.686Z,16.25
2016-03-30T10:09:55.688Z,16.31
2016-03-30T10:10:55.705Z,16.29
2016-03-30T10:11:55.693Z,16.32
2016-03-30T10:12:55.693Z,16.28
2016-03-30T10:13:55.686Z,16.28
2016-03-30T10:14:55.678Z,16.26
2016-03-30T10:15:55.733Z,16.28
2016-03-30T10:16:55.662Z,16.26
2016-03-30T10:17:55.657Z,16.24
2016-03-30T10:18:55.655Z,16.29
2016-03-30T10:19:55.670Z,16.31
2016-03-30T10:20:55.668Z,16.36
2016-03-30T10:21:55.636Z,16.37
2016-03-30T10:22:55.666Z,16.5
2016-03-30T10:23:55.668Z,16.49
2016-03-30T10:24:55.654Z,16.5
2016-03-30T10:25:55.655Z,16.68
2016-03-30T10:26:55.656Z,16.79
2016-03-30T10:27:55.658Z,16.77
2016-03-30T10:28:55.660Z,16.77
2016-03-30T10:29:55.677Z,16.92
2016-03-30T10:30:55.695Z,17.02
2016-03-30T10:31:55.667Z,17.05
2016-03-30T10:32:55.669Z,17.09
2016-03-30T10:33:55.672Z,17.13
2016-03-30T10:34:55.658Z,17.23
2016-03-30T10:35:55.678Z,17.23
2016-03-30T10:36:55.664Z,17.3
2016-03-30T10:37:55.698Z,17.41
2016-03-30T10:38:55.685Z,17.39
2016-03-30T10:39:55.672Z,17.31
2016-03-30T10:40:55.674Z,17.35
2016-03-30T10:41:55.678Z,17.34
2016-03-30T10:42:55.680Z,17.42
2016-03-30T10:43:55.683Z,17.47
2016-03-30T10:44:55.686Z,17.56
2016-03-30T10:45:55.829Z,17.6
2016-03-30T10:46:55.690Z,17.72
2016-03-30T10:47:55.693Z,17.79
2016-03-30T10:48:55.696Z,17.8
2016-03-30T10:49:55.699Z,17.78
2016-03-30T10:50:55.702Z,17.84
2016-03-30T10:51:55.704Z,17.78
2016-03-30T10:52:55.707Z,17.9
2016-03-30T10:53:55.710Z,17.94
2016-03-30T10:54:55.712Z,17.98
2016-03-30T10:55:55.699Z,17.9
2016-03-30T10:56:55.717Z,18.05
2016-03-30T10:57:55.704Z,18.13
2016-03-30T10:58:55.707Z,18.21
2016-03-30T10:59:55.726Z,18.18
2016-03-30T11:00:55.759Z,18.27
2016-03-30T11:01:55.731Z,18.27
2016-03-30T11:02:55.734Z,18.33
2016-03-30T11:03:55.720Z,18.34
2016-03-30T11:04:55.740Z,18.48
2016-03-30T11:05:55.726Z,18.6
2016-03-30T11:06:55.745Z,18.7
2016-03-30T11:07:55.747Z,18.81
2016-03-30T11:08:55.734Z,18.92
2016-03-30T11:09:55.736Z,19.11
2016-03-30T11:10:55.755Z,19.26
2016-03-30T11:11:55.742Z,19.39
2016-03-30T11:12:55.745Z,19.45
2016-03-30T11:13:55.763Z,19.53
2016-03-30T11:14:55.750Z,19.62
2016-03-30T11:15:55.784Z,19.47
2016-03-30T11:16:55.772Z,19.53
2016-03-30T11:17:55.758Z,19.55
2016-03-30T11:18:55.761Z,19.66
2016-03-30T11:19:55.779Z,19.62
2016-03-30T11:20:55.782Z,19.75
2016-03-30T11:21:55.769Z,19.77
2016-03-30T11:22:55.788Z,19.9
2016-03-30T11:23:55.774Z,20.03
2016-03-30T11:24:55.777Z,20.15
2016-03-30T11:25:55.796Z,20.29
2016-03-30T11:26:55.798Z,20.52
2016-03-30T11:27:55.801Z,20.71
2016-03-30T11:28:55.788Z,20.92
2016-03-30T11:29:55.806Z,21.05
2016-03-30T11:30:55.809Z,21.29
2016-03-30T11:31:55.796Z,21.26
2016-03-30T11:32:55.815Z,21.25
2016-03-30T11:33:55.817Z,21.3
2016-03-30T11:34:55.804Z,21.28
2016-03-30T11:35:55.806Z,21.3
2016-03-30T11:36:55.809Z,21.26
2016-03-30T11:37:55.812Z,21.2
2016-03-30T11:38:55.831Z,21.03
2016-03-30T11:39:55.818Z,20.98
2016-03-30T11:40:55.820Z,20.85
2016-03-30T11:41:55.839Z,20.89
2016-03-30T11:42:55.841Z,20.8
2016-03-30T11:43:55.844Z,20.77
2016-03-30T11:44:55.831Z,20.67
2016-03-30T11:45:55.834Z,20.68
2016-03-30T11:46:55.852Z,20.7
2016-03-30T11:47:55.854Z,20.77
2016-03-30T11:48:55.841Z,20.68
2016-03-30T11:49:55.860Z,20.92
2016-03-30T11:50:55.847Z,21.1
2016-03-30T11:51:55.865Z,21.28
2016-03-30T11:52:55.712Z,21.53
2016-03-30T11:53:55.887Z,21.68
2016-03-30T11:54:55.874Z,21.63
2016-03-30T11:55:55.861Z,21.77
2016-03-30T11:56:55.879Z,21.81
2016-03-30T11:57:55.881Z,21.94
2016-03-30T11:58:55.885Z,21.91
2016-03-30T11:59:55.887Z,21.91
2016-03-30T12:00:55.890Z,22.07
2016-03-30T12:01:55.892Z,22.07
2016-03-30T12:02:55.895Z,22.1
2016-03-30T12:03:55.898Z,22.06
2016-03-30T12:04:55.901Z,22.04
2016-03-30T12:05:55.903Z,21.92
2016-03-30T12:06:55.905Z,21.88
2016-03-30T12:07:55.908Z,21.77
2016-03-30T12:08:55.916Z,21.77
2016-03-30T12:09:55.918Z,21.78
2016-03-30T12:10:55.921Z,21.72
2016-03-30T12:11:55.939Z,21.74
2016-03-30T12:12:55.942Z,21.63
2016-03-30T12:13:55.944Z,21.59
2016-03-30T12:14:55.932Z,21.62
2016-03-30T12:15:55.950Z,21.54
2016-03-30T12:16:55.952Z,21.65
2016-03-30T12:17:55.955Z,21.74
2016-03-30T12:18:55.943Z,21.74
2016-03-30T12:19:55.945Z,21.63
2016-03-30T12:20:55.964Z,21.69
2016-03-30T12:21:55.966Z,21.69
2016-03-30T12:22:55.953Z,21.65
2016-03-30T12:23:55.987Z,21.83
2016-03-30T12:24:55.990Z,21.88
2016-03-30T12:25:55.977Z,21.91
2016-03-30T12:26:55.979Z,22.1
2016-03-30T12:27:55.982Z,22.28
2016-03-30T12:28:55.985Z,22.36
2016-03-30T12:29:55.988Z,22.51
2016-03-30T12:30:56.006Z,22.53
2016-03-30T12:31:56.008Z,22.67
2016-03-30T12:32:55.996Z,22.7
2016-03-30T12:33:55.889Z,22.7
2016-03-30T12:34:56.001Z,22.73
2016-03-30T12:35:56.004Z,22.53
2016-03-30T12:36:56.021Z,22.49
2016-03-30T12:37:56.010Z,22.25
2016-03-30T12:38:56.012Z,22.15
2016-03-30T12:39:55.858Z,22
2016-03-30T12:40:56.017Z,21.89
2016-03-30T12:41:56.020Z,21.72
2016-03-30T12:42:56.038Z,21.65
2016-03-30T12:43:56.025Z,21.62
2016-03-30T12:44:56.028Z,21.47
2016-03-30T12:45:56.030Z,21.54
2016-03-30T12:46:56.064Z,21.54
2016-03-30T12:47:56.036Z,21.38
2016-03-30T12:48:56.054Z,21.47
2016-03-30T12:49:56.057Z,21.54
2016-03-30T12:50:56.044Z,21.53
2016-03-30T12:51:56.047Z,21.41
2016-03-30T12:52:56.065Z,21.38
2016-03-30T12:53:56.067Z,21.23
2016-03-30T12:54:56.055Z,21.1
2016-03-30T12:55:56.058Z,21.03
2016-03-30T12:56:56.060Z,20.89
2016-03-30T12:57:56.078Z,20.77
2016-03-30T12:58:56.081Z,20.71
2016-03-30T12:59:56.083Z,20.73
2016-03-30T13:00:56.086Z,20.86
2016-03-30T13:01:56.089Z,21.11
2016-03-30T13:02:56.092Z,21.26
2016-03-30T13:03:56.094Z,21.43
2016-03-30T13:04:56.097Z,21.65
2016-03-30T13:05:56.100Z,21.66
2016-03-30T13:06:56.102Z,21.78
2016-03-30T13:07:56.308Z,21.78